Pittsburgh, Pennsylvania
Traffic Map
Current Weather Conditions
Pittsburgh, Pennsylvania
Clear
Clear

Feels Like: 0°
Wind Chill: Ceiling: Unl
Heat Index: Visibility: 8mi
Dew Point: -1° Wind: 5mph
Humidity: 79% Direction: 50° (NE)
Pressure: 29.93in Gusts: 0mph
Raw Report DataKAGC 200153Z 05004KT 8SM CLR 02/M01 A2993 RMK AO2 SLP149 T00221011
Traffic Incident Summary
Active as of:
Severity:
Category:
InformationThere was an issue retrieving the traffic information for this location. Please try a different location or try again shortly.
Advertisements
Track Severe Weather on mobile